sensor_id;sensor_type;location;lat;lon;timestamp;pressure;altitude;pressure_sealevel;temperature;humidity
29371;BME280;16357;52.188;7.838;2022-10-18T00:00:06;101842.50;;;18.31;69.66
29371;BME280;16357;52.188;7.838;2022-10-18T00:02:32;101843.19;;;18.33;69.85
29371;BME280;16357;52.188;7.838;2022-10-18T00:04:59;101842.16;;;18.34;69.92
29371;BME280;16357;52.188;7.838;2022-10-18T00:07:25;101850.13;;;18.35;69.75
29371;BME280;16357;52.188;7.838;2022-10-18T00:09:52;101843.66;;;18.36;69.75
29371;BME280;16357;52.188;7.838;2022-10-18T00:12:18;101848.72;;;18.39;70.03
29371;BME280;16357;52.188;7.838;2022-10-18T00:14:47;101847.50;;;18.42;69.87
29371;BME280;16357;52.188;7.838;2022-10-18T00:17:14;101854.63;;;18.43;70.19
29371;BME280;16357;52.188;7.838;2022-10-18T00:19:40;101852.59;;;18.45;70.34
29371;BME280;16357;52.188;7.838;2022-10-18T00:22:07;101848.66;;;18.48;70.28
29371;BME280;16357;52.188;7.838;2022-10-18T00:24:34;101847.44;;;18.50;70.31
29371;BME280;16357;52.188;7.838;2022-10-18T00:27:00;101854.41;;;18.53;70.37
29371;BME280;16357;52.188;7.838;2022-10-18T00:29:26;101856.75;;;18.56;70.26
29371;BME280;16357;52.188;7.838;2022-10-18T00:31:53;101854.69;;;18.58;70.59
29371;BME280;16357;52.188;7.838;2022-10-18T00:34:19;101857.03;;;18.61;70.42
29371;BME280;16357;52.188;7.838;2022-10-18T00:36:45;101853.31;;;18.62;70.29
29371;BME280;16357;52.188;7.838;2022-10-18T00:39:17;101856.34;;;18.67;70.30
29371;BME280;16357;52.188;7.838;2022-10-18T00:41:45;101855.47;;;18.67;70.47
29371;BME280;16357;52.188;7.838;2022-10-18T00:46:42;101851.84;;;18.74;70.31
29371;BME280;16357;52.188;7.838;2022-10-18T00:51:59;101847.78;;;18.78;70.44
29371;BME280;16357;52.188;7.838;2022-10-18T00:54:27;101844.00;;;18.79;70.43
29371;BME280;16357;52.188;7.838;2022-10-18T00:56:55;101846.56;;;18.81;70.59
29371;BME280;16357;52.188;7.838;2022-10-18T00:59:22;101841.13;;;18.81;70.46
29371;BME280;16357;52.188;7.838;2022-10-18T01:01:48;101847.22;;;18.83;70.46
29371;BME280;16357;52.188;7.838;2022-10-18T01:04:17;101846.19;;;18.84;70.49
29371;BME280;16357;52.188;7.838;2022-10-18T01:06:54;101842.25;;;18.86;70.34
29371;BME280;16357;52.188;7.838;2022-10-18T01:12:09;101840.00;;;18.90;70.26
29371;BME280;16357;52.188;7.838;2022-10-18T01:26:29;101830.09;;;18.97;70.23
29371;BME280;16357;52.188;7.838;2022-10-18T01:29:13;101833.84;;;18.96;70.10
29371;BME280;16357;52.188;7.838;2022-10-18T01:34:46;101831.97;;;18.97;70.05
29371;BME280;16357;52.188;7.838;2022-10-18T01:37:16;101818.53;;;18.95;70.21
29371;BME280;16357;52.188;7.838;2022-10-18T01:39:46;101821.25;;;18.95;70.37
29371;BME280;16357;52.188;7.838;2022-10-18T01:42:16;101826.69;;;18.95;70.35
29371;BME280;16357;52.188;7.838;2022-10-18T01:44:46;101814.97;;;18.95;70.44
29371;BME280;16357;52.188;7.838;2022-10-18T01:47:14;101815.81;;;18.95;70.44
29371;BME280;16357;52.188;7.838;2022-10-18T01:49:40;101817.69;;;18.95;70.41
29371;BME280;16357;52.188;7.838;2022-10-18T01:52:11;101811.25;;;18.96;70.34
29371;BME280;16357;52.188;7.838;2022-10-18T01:54:42;101802.22;;;18.95;70.33
29371;BME280;16357;52.188;7.838;2022-10-18T01:57:17;101812.94;;;18.97;70.29
29371;BME280;16357;52.188;7.838;2022-10-18T02:00:12;101806.44;;;18.98;70.54
29371;BME280;16357;52.188;7.838;2022-10-18T02:05:23;101810.00;;;18.98;70.45
29371;BME280;16357;52.188;7.838;2022-10-18T02:11:02;101812.56;;;19.00;70.34
29371;BME280;16357;52.188;7.838;2022-10-18T02:13:47;101810.88;;;18.99;70.88
29371;BME280;16357;52.188;7.838;2022-10-18T02:16:27;101815.28;;;19.00;70.45
29371;BME280;16357;52.188;7.838;2022-10-18T02:18:58;101813.38;;;19.00;70.41
29371;BME280;16357;52.188;7.838;2022-10-18T02:21:27;101818.00;;;19.00;70.45
29371;BME280;16357;52.188;7.838;2022-10-18T02:23:56;101819.66;;;19.01;70.36
29371;BME280;16357;52.188;7.838;2022-10-18T02:26:24;101816.94;;;19.01;70.59
29371;BME280;16357;52.188;7.838;2022-10-18T02:28:51;101815.94;;;19.02;70.79
29371;BME280;16357;52.188;7.838;2022-10-18T02:34:18;101814.72;;;19.04;70.42
29371;BME280;16357;52.188;7.838;2022-10-18T02:36:46;101815.72;;;19.03;70.48
29371;BME280;16357;52.188;7.838;2022-10-18T02:39:22;101812.00;;;19.04;70.69
29371;BME280;16357;52.188;7.838;2022-10-18T02:41:52;101810.97;;;19.05;70.60
29371;BME280;16357;52.188;7.838;2022-10-18T02:44:19;101803.84;;;19.04;70.26
29371;BME280;16357;52.188;7.838;2022-10-18T02:46:46;101805.72;;;19.04;70.42
29371;BME280;16357;52.188;7.838;2022-10-18T02:49:13;101796.69;;;19.03;70.31
29371;BME280;16357;52.188;7.838;2022-10-18T02:51:39;101805.72;;;19.04;70.51
29371;BME280;16357;52.188;7.838;2022-10-18T02:54:05;101798.56;;;19.03;70.57
29371;BME280;16357;52.188;7.838;2022-10-18T02:56:34;101805.72;;;19.04;70.68
29371;BME280;16357;52.188;7.838;2022-10-18T02:59:00;101803.00;;;19.04;70.70
29371;BME280;16357;52.188;7.838;2022-10-18T03:01:27;101806.72;;;19.03;70.72
29371;BME280;16357;52.188;7.838;2022-10-18T03:03:53;101801.97;;;19.05;70.56
29371;BME280;16357;52.188;7.838;2022-10-18T03:06:19;101802.81;;;19.05;70.59
29371;BME280;16357;52.188;7.838;2022-10-18T03:08:46;101804.69;;;19.05;70.56
29371;BME280;16357;52.188;7.838;2022-10-18T03:11:12;101810.13;;;19.05;70.38
29371;BME280;16357;52.188;7.838;2022-10-18T03:13:39;101810.13;;;19.05;70.47
29371;BME280;16357;52.188;7.838;2022-10-18T03:16:05;101805.53;;;19.05;70.38
29371;BME280;16357;52.188;7.838;2022-10-18T03:18:32;101801.97;;;19.05;70.35
29371;BME280;16357;52.188;7.838;2022-10-18T03:21:03;101810.13;;;19.05;70.25
29371;BME280;16357;52.188;7.838;2022-10-18T03:23:30;101801.13;;;19.04;70.35
29371;BME280;16357;52.188;7.838;2022-10-18T03:25:57;101801.13;;;19.04;70.59
29371;BME280;16357;52.188;7.838;2022-10-18T03:28:23;101804.84;;;19.03;70.41
29371;BME280;16357;52.188;7.838;2022-10-18T03:30:50;101813.88;;;19.04;70.19
29371;BME280;16357;52.188;7.838;2022-10-18T03:33:17;101806.72;;;19.03;70.35
29371;BME280;16357;52.188;7.838;2022-10-18T03:35:44;101805.91;;;19.02;70.70
29371;BME280;16357;52.188;7.838;2022-10-18T03:38:11;101813.22;;;19.02;70.36
29371;BME280;16357;52.188;7.838;2022-10-18T03:40:37;101801.66;;;19.00;70.46
29371;BME280;16357;52.188;7.838;2022-10-18T03:43:04;101814.22;;;19.01;70.39
29371;BME280;16357;52.188;7.838;2022-10-18T03:45:30;101806.28;;;18.99;70.58
29371;BME280;16357;52.188;7.838;2022-10-18T03:47:57;101803.56;;;18.99;70.56
29371;BME280;16357;52.188;7.838;2022-10-18T03:50:23;101805.44;;;18.99;70.55
29371;BME280;16357;52.188;7.838;2022-10-18T03:52:49;101808.16;;;18.99;70.67
29371;BME280;16357;52.188;7.838;2022-10-18T03:55:16;101800.16;;;18.97;70.53
29371;BME280;16357;52.188;7.838;2022-10-18T03:57:42;101803.94;;;18.96;70.45
29371;BME280;16357;52.188;7.838;2022-10-18T04:00:09;101806.66;;;18.96;70.62
29371;BME280;16357;52.188;7.838;2022-10-18T04:02:36;101794.94;;;18.96;70.49
29371;BME280;16357;52.188;7.838;2022-10-18T04:05:02;101794.06;;;18.95;70.68
29371;BME280;16357;52.188;7.838;2022-10-18T04:07:29;101794.06;;;18.95;70.68
29371;BME280;16357;52.188;7.838;2022-10-18T04:09:55;101798.66;;;18.95;70.72
29371;BME280;16357;52.188;7.838;2022-10-18T04:12:22;101796.78;;;18.95;70.86
29371;BME280;16357;52.188;7.838;2022-10-18T04:14:48;101798.50;;;18.96;70.96
29371;BME280;16357;52.188;7.838;2022-10-18T04:17:14;101795.09;;;18.94;70.75
29371;BME280;16357;52.188;7.838;2022-10-18T04:19:41;101796.78;;;18.95;70.74
29371;BME280;16357;52.188;7.838;2022-10-18T04:22:08;101787.78;;;18.95;70.81
29371;BME280;16357;52.188;7.838;2022-10-18T04:24:35;101803.09;;;18.96;70.82
29371;BME280;16357;52.188;7.838;2022-10-18T04:27:03;101801.38;;;18.95;70.48
29371;BME280;16357;52.188;7.838;2022-10-18T04:29:30;101801.22;;;18.96;70.86
29371;BME280;16357;52.188;7.838;2022-10-18T04:31:56;101798.66;;;18.95;70.69
29371;BME280;16357;52.188;7.838;2022-10-18T04:34:23;101800.53;;;18.94;70.59
29371;BME280;16357;52.188;7.838;2022-10-18T04:36:49;101800.72;;;18.93;70.71
29371;BME280;16357;52.188;7.838;2022-10-18T04:39:16;101802.44;;;18.94;70.73
29371;BME280;16357;52.188;7.838;2022-10-18T04:41:42;101803.44;;;18.93;70.60
29371;BME280;16357;52.188;7.838;2022-10-18T04:44:09;101795.28;;;18.93;70.81
29371;BME280;16357;52.188;7.838;2022-10-18T04:46:35;101797.16;;;18.92;70.81
29371;BME280;16357;52.188;7.838;2022-10-18T04:49:02;101801.75;;;18.92;70.88
29371;BME280;16357;52.188;7.838;2022-10-18T04:51:29;101806.16;;;18.93;70.88
29371;BME280;16357;52.188;7.838;2022-10-18T04:53:55;101797.16;;;18.92;70.83
29371;BME280;16357;52.188;7.838;2022-10-18T04:56:22;101804.47;;;18.92;70.88
29371;BME280;16357;52.188;7.838;2022-10-18T04:58:48;101804.47;;;18.92;70.95
29371;BME280;16357;52.188;7.838;2022-10-18T05:01:15;101809.91;;;18.92;70.71
29371;BME280;16357;52.188;7.838;2022-10-18T05:03:42;101808.25;;;18.91;70.52
29371;BME280;16357;52.188;7.838;2022-10-18T05:06:09;101816.41;;;18.91;70.82
29371;BME280;16357;52.188;7.838;2022-10-18T05:08:36;101815.34;;;18.92;70.91
29371;BME280;16357;52.188;7.838;2022-10-18T05:11:02;101810.97;;;18.91;70.84
29371;BME280;16357;52.188;7.838;2022-10-18T05:13:29;101817.41;;;18.90;70.78
29371;BME280;16357;52.188;7.838;2022-10-18T05:15:56;101817.41;;;18.90;71.01
29371;BME280;16357;52.188;7.838;2022-10-18T05:18:24;101811.97;;;18.90;71.03
29371;BME280;16357;52.188;7.838;2022-10-18T05:20:51;101819.13;;;18.91;71.16
29371;BME280;16357;52.188;7.838;2022-10-18T05:23:17;101815.72;;;18.89;70.97
29371;BME280;16357;52.188;7.838;2022-10-18T05:25:43;101817.41;;;18.90;70.99
29371;BME280;16357;52.188;7.838;2022-10-18T05:28:10;101820.13;;;18.90;70.63
29371;BME280;16357;52.188;7.838;2022-10-18T05:31:00;101820.63;;;18.93;70.96
29371;BME280;16357;52.188;7.838;2022-10-18T05:33:27;101814.53;;;18.91;70.62
29371;BME280;16357;52.188;7.838;2022-10-18T05:35:53;101822.00;;;18.89;70.84
29371;BME280;16357;52.188;7.838;2022-10-18T05:38:20;101824.06;;;18.87;71.02
29371;BME280;16357;52.188;7.838;2022-10-18T05:40:46;101816.28;;;18.84;70.99
29371;BME280;16357;52.188;7.838;2022-10-18T05:43:13;101815.63;;;18.82;71.20
29371;BME280;16357;52.188;7.838;2022-10-18T05:45:39;101814.78;;;18.81;71.28
29371;BME280;16357;52.188;7.838;2022-10-18T05:48:05;101816.81;;;18.79;71.28
29371;BME280;16357;52.188;7.838;2022-10-18T05:50:33;101818.53;;;18.80;71.25
29371;BME280;16357;52.188;7.838;2022-10-18T05:53:05;101817.66;;;18.80;71.21
29371;BME280;16357;52.188;7.838;2022-10-18T05:55:49;101809.50;;;18.80;71.18
29371;BME280;16357;52.188;7.838;2022-10-18T05:58:16;101811.38;;;18.79;71.18
29371;BME280;16357;52.188;7.838;2022-10-18T06:00:42;101815.97;;;18.79;71.19
29371;BME280;16357;52.188;7.838;2022-10-18T06:03:09;101823.31;;;18.78;71.13
29371;BME280;16357;52.188;7.838;2022-10-18T06:05:35;101823.47;;;18.77;71.10
29371;BME280;16357;52.188;7.838;2022-10-18T06:08:01;101828.06;;;18.76;71.11
29371;BME280;16357;52.188;7.838;2022-10-18T06:10:33;101835.53;;;18.74;70.86
29371;BME280;16357;52.188;7.838;2022-10-18T06:12:59;101843.88;;;18.73;70.91
29371;BME280;16357;52.188;7.838;2022-10-18T06:15:26;101848.47;;;18.72;70.99
29371;BME280;16357;52.188;7.838;2022-10-18T06:17:52;101839.66;;;18.70;70.93
29371;BME280;16357;52.188;7.838;2022-10-18T06:20:19;101847.16;;;18.68;70.66
29371;BME280;16357;52.188;7.838;2022-10-18T06:22:45;101831.00;;;18.67;71.20
29371;BME280;16357;52.188;7.838;2022-10-18T06:25:11;101835.81;;;18.64;71.31
29371;BME280;16357;52.188;7.838;2022-10-18T06:27:38;101842.06;;;18.65;71.15
29371;BME280;16357;52.188;7.838;2022-10-18T06:30:05;101845.81;;;18.64;71.18
29371;BME280;16357;52.188;7.838;2022-10-18T06:32:31;101847.69;;;18.63;71.33
29371;BME280;16357;52.188;7.838;2022-10-18T06:34:58;101841.41;;;18.63;71.33
29371;BME280;16357;52.188;7.838;2022-10-18T06:37:24;101838.69;;;18.63;71.28
29371;BME280;16357;52.188;7.838;2022-10-18T06:39:51;101845.81;;;18.64;71.49
29371;BME280;16357;52.188;7.838;2022-10-18T06:42:17;101855.66;;;18.65;71.26
29371;BME280;16357;52.188;7.838;2022-10-18T06:44:47;101858.38;;;18.65;71.51
29371;BME280;16357;52.188;7.838;2022-10-18T06:47:15;101850.91;;;18.67;71.71
29371;BME280;16357;52.188;7.838;2022-10-18T06:49:41;101862.78;;;18.66;71.53
29371;BME280;16357;52.188;7.838;2022-10-18T06:52:08;101863.63;;;18.67;71.44
29371;BME280;16357;52.188;7.838;2022-10-18T06:54:34;101865.13;;;18.69;71.63
29371;BME280;16357;52.188;7.838;2022-10-18T06:57:01;101869.56;;;18.70;71.63
29371;BME280;16357;52.188;7.838;2022-10-18T06:59:28;101873.97;;;18.71;71.35
29371;BME280;16357;52.188;7.838;2022-10-18T07:01:56;101881.09;;;18.72;71.37
29371;BME280;16357;52.188;7.838;2022-10-18T07:04:23;101883.81;;;18.72;71.46
29371;BME280;16357;52.188;7.838;2022-10-18T07:06:53;101893.66;;;18.73;71.44
29371;BME280;16357;52.188;7.838;2022-10-18T07:09:19;101893.66;;;18.73;71.36
29371;BME280;16357;52.188;7.838;2022-10-18T07:11:45;101891.97;;;18.72;71.16
29371;BME280;16357;52.188;7.838;2022-10-18T07:14:12;101901.13;;;18.71;71.31
29371;BME280;16357;52.188;7.838;2022-10-18T07:16:41;101907.63;;;18.70;71.04
29371;BME280;16357;52.188;7.838;2022-10-18T07:19:08;101912.56;;;18.67;71.07
29371;BME280;16357;52.188;7.838;2022-10-18T07:21:34;101917.16;;;18.66;71.39
29371;BME280;16357;52.188;7.838;2022-10-18T07:24:01;101916.13;;;18.67;71.41
29371;BME280;16357;52.188;7.838;2022-10-18T07:26:30;101912.75;;;18.65;71.18
29371;BME280;16357;52.188;7.838;2022-10-18T07:29:05;101920.72;;;18.67;71.19
29371;BME280;16357;52.188;7.838;2022-10-18T07:31:33;101924.28;;;18.67;70.92
29371;BME280;16357;52.188;7.838;2022-10-18T07:34:00;101918.00;;;18.67;70.84
29371;BME280;16357;52.188;7.838;2022-10-18T07:36:26;101919.88;;;18.66;70.62
29371;BME280;16357;52.188;7.838;2022-10-18T07:38:53;101919.88;;;18.66;70.55
29371;BME280;16357;52.188;7.838;2022-10-18T07:41:19;101927.00;;;18.67;70.56
29371;BME280;16357;52.188;7.838;2022-10-18T07:43:48;101931.41;;;18.68;70.39
29371;BME280;16357;52.188;7.838;2022-10-18T07:46:17;101927.00;;;18.67;70.14
29371;BME280;16357;52.188;7.838;2022-10-18T07:48:44;101927.00;;;18.67;70.25
29371;BME280;16357;52.188;7.838;2022-10-18T07:51:11;101926.16;;;18.67;70.42
29371;BME280;16357;52.188;7.838;2022-10-18T07:53:38;101934.28;;;18.67;70.50
29371;BME280;16357;52.188;7.838;2022-10-18T07:56:07;101945.00;;;18.68;70.70
29371;BME280;16357;52.188;7.838;2022-10-18T07:58:36;101940.91;;;18.72;70.86
29371;BME280;16357;52.188;7.838;2022-10-18T08:01:04;101940.22;;;18.78;71.09
29371;BME280;16357;52.188;7.838;2022-10-18T08:03:32;101935.25;;;18.82;70.85
29371;BME280;16357;52.188;7.838;2022-10-18T08:05:59;101947.25;;;18.88;70.95
29371;BME280;16357;52.188;7.838;2022-10-18T08:08:25;101945.72;;;18.93;70.90
29371;BME280;16357;52.188;7.838;2022-10-18T08:10:53;101947.88;;;18.98;70.65
29371;BME280;16357;52.188;7.838;2022-10-18T08:13:20;101938.78;;;19.05;70.28
29371;BME280;16357;52.188;7.838;2022-10-18T08:15:47;101939.28;;;19.09;70.11
29371;BME280;16357;52.188;7.838;2022-10-18T08:18:14;101941.28;;;19.15;69.76
29371;BME280;16357;52.188;7.838;2022-10-18T08:20:44;101946.16;;;19.20;69.16
29371;BME280;16357;52.188;7.838;2022-10-18T08:23:11;101943.25;;;19.21;68.43
29371;BME280;16357;52.188;7.838;2022-10-18T08:25:37;101943.06;;;19.23;68.68
29371;BME280;16357;52.188;7.838;2022-10-18T08:28:05;101943.75;;;19.25;67.83
29371;BME280;16357;52.188;7.838;2022-10-18T08:30:33;101933.88;;;19.24;68.03
29371;BME280;16357;52.188;7.838;2022-10-18T08:33:00;101937.44;;;19.24;67.52
29371;BME280;16357;52.188;7.838;2022-10-18T08:35:27;101946.63;;;19.23;67.51
29371;BME280;16357;52.188;7.838;2022-10-18T08:37:53;101950.41;;;19.22;67.27
29371;BME280;16357;52.188;7.838;2022-10-18T08:40:20;101955.84;;;19.22;67.70
29371;BME280;16357;52.188;7.838;2022-10-18T08:43:00;101964.47;;;19.26;67.74
29371;BME280;16357;52.188;7.838;2022-10-18T08:45:34;101963.25;;;19.28;67.94
29371;BME280;16357;52.188;7.838;2022-10-18T08:48:16;101963.72;;;19.32;67.33
29371;BME280;16357;52.188;7.838;2022-10-18T08:50:47;101977.16;;;19.34;66.75
29371;BME280;16357;52.188;7.838;2022-10-18T08:53:45;101970.28;;;19.38;66.47
29371;BME280;16357;52.188;7.838;2022-10-18T08:56:16;101973.03;;;19.38;66.29
29371;BME280;16357;52.188;7.838;2022-10-18T08:58:46;101982.69;;;19.40;66.12
29371;BME280;16357;52.188;7.838;2022-10-18T09:04:36;101992.66;;;19.48;65.93
29371;BME280;16357;52.188;7.838;2022-10-18T09:07:26;102004.03;;;19.51;65.28
29371;BME280;16357;52.188;7.838;2022-10-18T09:10:17;102000.47;;;19.51;64.84
29371;BME280;16357;52.188;7.838;2022-10-18T09:13:03;101991.66;;;19.49;64.39
29371;BME280;16357;52.188;7.838;2022-10-18T09:16:03;101993.88;;;19.45;64.31
29371;BME280;16357;52.188;7.838;2022-10-18T09:21:20;102018.28;;;19.39;64.21
29371;BME280;16357;52.188;7.838;2022-10-18T09:24:04;102003.03;;;19.29;63.19
29371;BME280;16357;52.188;7.838;2022-10-18T09:26:42;102017.53;;;19.22;63.70
29371;BME280;16357;52.188;7.838;2022-10-18T09:34:41;102009.22;;;19.00;63.57
29371;BME280;16357;52.188;7.838;2022-10-18T09:37:13;102006.69;;;18.99;63.58
29371;BME280;16357;52.188;7.838;2022-10-18T09:39:59;102020.75;;;19.02;64.12
29371;BME280;16357;52.188;7.838;2022-10-18T09:42:38;102025.66;;;19.07;63.95
29371;BME280;16357;52.188;7.838;2022-10-18T09:47:46;102022.50;;;19.18;63.06
29371;BME280;16357;52.188;7.838;2022-10-18T09:52:49;102021.78;;;19.24;62.63
29371;BME280;16357;52.188;7.838;2022-10-18T09:55:26;102023.50;;;19.25;62.73
29371;BME280;16357;52.188;7.838;2022-10-18T09:57:59;102018.72;;;19.27;63.06
29371;BME280;16357;52.188;7.838;2022-10-18T10:00:30;102027.72;;;19.28;62.36
29371;BME280;16357;52.188;7.838;2022-10-18T10:03:00;102024.78;;;19.29;61.55
29371;BME280;16357;52.188;7.838;2022-10-18T10:05:27;102031.13;;;19.30;61.40
29371;BME280;16357;52.188;7.838;2022-10-18T10:07:58;102037.88;;;19.34;61.97
29371;BME280;16357;52.188;7.838;2022-10-18T10:10:27;102027.81;;;19.35;62.43
29371;BME280;16357;52.188;7.838;2022-10-18T10:13:16;102018.28;;;19.39;62.37
29371;BME280;16357;52.188;7.838;2022-10-18T10:16:00;102015.00;;;19.43;61.88
29371;BME280;16357;52.188;7.838;2022-10-18T10:18:35;102020.75;;;19.48;61.76
29371;BME280;16357;52.188;7.838;2022-10-18T10:21:06;102023.25;;;19.50;61.73
29371;BME280;16357;52.188;7.838;2022-10-18T10:23:38;102019.16;;;19.54;61.80
29371;BME280;16357;52.188;7.838;2022-10-18T10:26:22;102021.31;;;19.59;61.90
29371;BME280;16357;52.188;7.838;2022-10-18T10:28:49;102017.38;;;19.61;61.53
29371;BME280;16357;52.188;7.838;2022-10-18T10:34:18;102008.97;;;19.71;61.75
29371;BME280;16357;52.188;7.838;2022-10-18T10:36:48;102006.72;;;19.74;60.95
29371;BME280;16357;52.188;7.838;2022-10-18T10:39:16;102018.94;;;19.79;61.01
29371;BME280;16357;52.188;7.838;2022-10-18T10:41:55;102017.56;;;19.83;61.20
29371;BME280;16357;52.188;7.838;2022-10-18T10:44:24;102009.00;;;19.86;60.61
29371;BME280;16357;52.188;7.838;2022-10-18T10:47:03;102014.91;;;19.89;59.79
29371;BME280;16357;52.188;7.838;2022-10-18T10:49:45;102019.59;;;19.95;60.37
29371;BME280;16357;52.188;7.838;2022-10-18T10:52:17;102012.59;;;20.01;59.28
29371;BME280;16357;52.188;7.838;2022-10-18T10:54:54;102010.50;;;20.03;58.62
29371;BME280;16357;52.188;7.838;2022-10-18T10:57:43;102013.50;;;20.08;58.62
29371;BME280;16357;52.188;7.838;2022-10-18T11:03:13;102000.16;;;20.13;57.92
29371;BME280;16357;52.188;7.838;2022-10-18T11:05:55;102012.38;;;20.17;57.49
29371;BME280;16357;52.188;7.838;2022-10-18T11:08:37;102016.41;;;20.22;57.41
29371;BME280;16357;52.188;7.838;2022-10-18T11:11:21;102019.78;;;20.24;57.25
29371;BME280;16357;52.188;7.838;2022-10-18T11:13:57;102015.84;;;20.26;57.42
29371;BME280;16357;52.188;7.838;2022-10-18T11:22:37;102004.28;;;20.39;56.29
29371;BME280;16357;52.188;7.838;2022-10-18T11:25:11;102009.16;;;20.44;55.74
29371;BME280;16357;52.188;7.838;2022-10-18T11:28:02;102010.47;;;20.48;55.21
29371;BME280;16357;52.188;7.838;2022-10-18T11:30:46;102005.50;;;20.51;54.81
29371;BME280;16357;52.188;7.838;2022-10-18T11:33:28;102007.84;;;20.54;54.66
29371;BME280;16357;52.188;7.838;2022-10-18T11:36:23;102012.75;;;20.59;54.50
29371;BME280;16357;52.188;7.838;2022-10-18T11:38:55;102003.31;;;20.61;54.08
29371;BME280;16357;52.188;7.838;2022-10-18T11:41:30;102001.25;;;20.64;53.69
29371;BME280;16357;52.188;7.838;2022-10-18T11:44:01;102001.06;;;20.65;54.47
29371;BME280;16357;52.188;7.838;2022-10-18T11:52:18;102005.56;;;20.73;53.65
29371;BME280;16357;52.188;7.838;2022-10-18T11:55:00;101999.88;;;20.74;54.48
29371;BME280;16357;52.188;7.838;2022-10-18T12:05:30;101999.75;;;20.82;53.31
29371;BME280;16357;52.188;7.838;2022-10-18T12:10:50;101992.97;;;20.93;53.53
29371;BME280;16357;52.188;7.838;2022-10-18T12:16:04;101989.06;;;21.02;52.69
29371;BME280;16357;52.188;7.838;2022-10-18T12:18:32;101988.66;;;21.05;51.99
29371;BME280;16357;52.188;7.838;2022-10-18T12:21:01;101992.72;;;21.10;51.39
29371;BME280;16357;52.188;7.838;2022-10-18T12:25:59;101978.28;;;21.16;51.89
29371;BME280;16357;52.188;7.838;2022-10-18T12:34:25;101982.56;;;21.25;51.09
29371;BME280;16357;52.188;7.838;2022-10-18T12:39:40;101987.81;;;21.26;49.81
29371;BME280;16357;52.188;7.838;2022-10-18T12:42:28;101974.16;;;21.26;49.41
29371;BME280;16357;52.188;7.838;2022-10-18T12:45:01;101971.66;;;21.25;49.34
29371;BME280;16357;52.188;7.838;2022-10-18T12:47:28;101964.47;;;21.24;48.98
29371;BME280;16357;52.188;7.838;2022-10-18T12:49:58;101975.41;;;21.24;49.38
29371;BME280;16357;52.188;7.838;2022-10-18T12:52:27;101969.94;;;21.24;48.17
29371;BME280;16357;52.188;7.838;2022-10-18T13:13:32;101978.53;;;21.21;45.88
29371;BME280;16357;52.188;7.838;2022-10-18T13:18:51;101975.16;;;21.19;46.94
29371;BME280;16357;52.188;7.838;2022-10-18T13:24:22;101968.66;;;21.20;46.38
29371;BME280;16357;52.188;7.838;2022-10-18T13:35:40;101982.94;;;21.22;45.96
29371;BME280;16357;52.188;7.838;2022-10-18T13:46:23;101980.72;;;21.32;46.07
29371;BME280;16357;52.188;7.838;2022-10-18T13:48:51;101985.16;;;21.33;45.23
29371;BME280;16357;52.188;7.838;2022-10-18T13:56:39;101985.59;;;21.37;44.98
29371;BME280;16357;52.188;7.838;2022-10-18T14:02:09;101981.19;;;21.36;44.70
29371;BME280;16357;52.188;7.838;2022-10-18T14:07:55;101972.94;;;21.29;44.95
29371;BME280;16357;52.188;7.838;2022-10-18T14:10:39;101989.13;;;21.31;45.13
29371;BME280;16357;52.188;7.838;2022-10-18T14:13:35;101989.53;;;21.27;44.49
29371;BME280;16357;52.188;7.838;2022-10-18T14:16:27;101991.38;;;21.27;44.71
29371;BME280;16357;52.188;7.838;2022-10-18T14:19:01;101981.91;;;21.23;43.57
29371;BME280;16357;52.188;7.838;2022-10-18T14:21:35;101993.00;;;21.21;43.35
29371;BME280;16357;52.188;7.838;2022-10-18T14:24:14;101986.28;;;21.17;43.37
29371;BME280;16357;52.188;7.838;2022-10-18T14:26:42;101990.63;;;21.12;43.42
29371;BME280;16357;52.188;7.838;2022-10-18T14:29:16;101994.78;;;21.08;42.74
29371;BME280;16357;52.188;7.838;2022-10-18T14:31:53;101993.47;;;21.03;43.10
29371;BME280;16357;52.188;7.838;2022-10-18T14:34:20;101983.16;;;20.99;42.29
29371;BME280;16357;52.188;7.838;2022-10-18T14:36:48;101990.25;;;20.93;42.66
29371;BME280;16357;52.188;7.838;2022-10-18T14:39:21;101991.66;;;20.89;42.99
29371;BME280;16357;52.188;7.838;2022-10-18T14:41:53;101987.63;;;20.85;42.58
29371;BME280;16357;52.188;7.838;2022-10-18T14:44:30;101991.78;;;20.81;42.35
29371;BME280;16357;52.188;7.838;2022-10-18T14:47:00;101991.53;;;20.76;42.53
29371;BME280;16357;52.188;7.838;2022-10-18T14:49:27;101995.66;;;20.72;41.45
29371;BME280;16357;52.188;7.838;2022-10-18T14:51:57;102001.72;;;20.67;41.56
29371;BME280;16357;52.188;7.838;2022-10-18T14:54:31;101999.75;;;20.61;41.61
29371;BME280;16357;52.188;7.838;2022-10-18T14:56:59;101993.19;;;20.55;41.09
29371;BME280;16357;52.188;7.838;2022-10-18T14:59:29;102002.75;;;20.51;41.03
29371;BME280;16357;52.188;7.838;2022-10-18T15:02:00;102000.38;;;20.48;41.87
29371;BME280;16357;52.188;7.838;2022-10-18T15:04:28;102002.84;;;20.43;42.25
29371;BME280;16357;52.188;7.838;2022-10-18T15:07:00;102008.69;;;20.40;42.92
29371;BME280;16357;52.188;7.838;2022-10-18T15:09:28;102011.34;;;20.33;43.07
29371;BME280;16357;52.188;7.838;2022-10-18T15:11:55;102016.31;;;20.30;43.74
29371;BME280;16357;52.188;7.838;2022-10-18T15:14:25;102014.81;;;20.27;44.15
29371;BME280;16357;52.188;7.838;2022-10-18T15:16:57;102015.41;;;20.23;44.23
29371;BME280;16357;52.188;7.838;2022-10-18T15:19:34;102014.91;;;20.19;44.48
29371;BME280;16357;52.188;7.838;2022-10-18T15:22:06;102022.81;;;20.14;44.27
29371;BME280;16357;52.188;7.838;2022-10-18T15:27:42;102020.56;;;20.03;44.37
29371;BME280;16357;52.188;7.838;2022-10-18T15:30:17;102022.16;;;19.97;44.40
29371;BME280;16357;52.188;7.838;2022-10-18T15:32:50;102024.59;;;19.92;45.30